sensor_id;sensor_type;location;lat;lon;timestamp;P1;durP1;ratioP1;P2;durP2;ratioP2
13374;SDS011;6756;51.354;15.754;2024-03-02T00:01:11;19.20;;;14.73;;
13374;SDS011;6756;51.354;15.754;2024-03-02T00:05:16;18.23;;;15.07;;
13374;SDS011;6756;51.354;15.754;2024-03-02T00:09:21;16.00;;;13.17;;
13374;SDS011;6756;51.354;15.754;2024-03-02T00:13:21;18.30;;;13.50;;
13374;SDS011;6756;51.354;15.754;2024-03-02T00:17:24;16.63;;;13.43;;
13374;SDS011;6756;51.354;15.754;2024-03-02T00:21:26;19.07;;;13.90;;
13374;SDS011;6756;51.354;15.754;2024-03-02T00:29:44;17.03;;;12.87;;
13374;SDS011;6756;51.354;15.754;2024-03-02T00:33:46;16.30;;;13.50;;
13374;SDS011;6756;51.354;15.754;2024-03-02T00:37:48;17.60;;;13.27;;
13374;SDS011;6756;51.354;15.754;2024-03-02T00:41:48;16.70;;;13.00;;
13374;SDS011;6756;51.354;15.754;2024-03-02T00:45:49;18.80;;;13.83;;
13374;SDS011;6756;51.354;15.754;2024-03-02T00:49:50;18.50;;;12.83;;
13374;SDS011;6756;51.354;15.754;2024-03-02T00:53:51;18.53;;;13.37;;
13374;SDS011;6756;51.354;15.754;2024-03-02T00:57:55;20.00;;;13.73;;
13374;SDS011;6756;51.354;15.754;2024-03-02T01:01:56;17.40;;;14.40;;
13374;SDS011;6756;51.354;15.754;2024-03-02T01:05:56;20.73;;;14.13;;
13374;SDS011;6756;51.354;15.754;2024-03-02T01:09:57;18.13;;;13.80;;
13374;SDS011;6756;51.354;15.754;2024-03-02T01:13:58;18.30;;;13.93;;
13374;SDS011;6756;51.354;15.754;2024-03-02T01:17:59;18.77;;;13.47;;
13374;SDS011;6756;51.354;15.754;2024-03-02T01:22:00;17.93;;;13.73;;
13374;SDS011;6756;51.354;15.754;2024-03-02T01:26:00;19.87;;;15.93;;
13374;SDS011;6756;51.354;15.754;2024-03-02T01:30:01;17.90;;;14.20;;
13374;SDS011;6756;51.354;15.754;2024-03-02T01:34:02;19.37;;;15.07;;
13374;SDS011;6756;51.354;15.754;2024-03-02T01:38:03;22.57;;;16.27;;
13374;SDS011;6756;51.354;15.754;2024-03-02T01:42:06;19.23;;;16.33;;
13374;SDS011;6756;51.354;15.754;2024-03-02T01:46:07;22.87;;;17.83;;
13374;SDS011;6756;51.354;15.754;2024-03-02T01:50:07;26.97;;;19.60;;
13374;SDS011;6756;51.354;15.754;2024-03-02T01:54:09;26.17;;;20.40;;
13374;SDS011;6756;51.354;15.754;2024-03-02T01:58:09;29.27;;;21.80;;
13374;SDS011;6756;51.354;15.754;2024-03-02T02:02:10;27.57;;;21.47;;
13374;SDS011;6756;51.354;15.754;2024-03-02T02:06:11;29.27;;;22.47;;
13374;SDS011;6756;51.354;15.754;2024-03-02T02:10:12;28.77;;;21.67;;
13374;SDS011;6756;51.354;15.754;2024-03-02T02:14:13;32.63;;;24.23;;
13374;SDS011;6756;51.354;15.754;2024-03-02T02:18:14;33.93;;;23.73;;
13374;SDS011;6756;51.354;15.754;2024-03-02T02:22:15;33.17;;;24.47;;
13374;SDS011;6756;51.354;15.754;2024-03-02T02:26:16;35.30;;;27.10;;
13374;SDS011;6756;51.354;15.754;2024-03-02T02:30:20;36.43;;;27.43;;
13374;SDS011;6756;51.354;15.754;2024-03-02T02:34:22;38.17;;;28.90;;
13374;SDS011;6756;51.354;15.754;2024-03-02T02:38:23;40.70;;;30.73;;
13374;SDS011;6756;51.354;15.754;2024-03-02T02:42:24;39.10;;;29.53;;
13374;SDS011;6756;51.354;15.754;2024-03-02T02:46:25;41.00;;;32.17;;
13374;SDS011;6756;51.354;15.754;2024-03-02T02:50:25;48.10;;;34.30;;
13374;SDS011;6756;51.354;15.754;2024-03-02T02:54:26;48.30;;;34.77;;
13374;SDS011;6756;51.354;15.754;2024-03-02T02:58:27;56.67;;;36.97;;
13374;SDS011;6756;51.354;15.754;2024-03-02T03:02:28;49.90;;;36.50;;
13374;SDS011;6756;51.354;15.754;2024-03-02T03:06:28;57.97;;;39.07;;
13374;SDS011;6756;51.354;15.754;2024-03-02T03:10:29;57.60;;;40.83;;
13374;SDS011;6756;51.354;15.754;2024-03-02T03:14:30;66.40;;;43.77;;
13374;SDS011;6756;51.354;15.754;2024-03-02T03:18:31;67.03;;;43.70;;
13374;SDS011;6756;51.354;15.754;2024-03-02T03:22:32;60.50;;;43.73;;
13374;SDS011;6756;51.354;15.754;2024-03-02T03:26:34;65.10;;;42.83;;
13374;SDS011;6756;51.354;15.754;2024-03-02T03:30:37;68.30;;;44.83;;
13374;SDS011;6756;51.354;15.754;2024-03-02T03:34:38;61.47;;;43.43;;
13374;SDS011;6756;51.354;15.754;2024-03-02T03:38:39;62.93;;;42.77;;
13374;SDS011;6756;51.354;15.754;2024-03-02T03:42:39;66.13;;;44.53;;
13374;SDS011;6756;51.354;15.754;2024-03-02T03:46:40;63.83;;;45.67;;
13374;SDS011;6756;51.354;15.754;2024-03-02T03:50:41;64.60;;;44.80;;
13374;SDS011;6756;51.354;15.754;2024-03-02T03:54:42;70.93;;;46.43;;
13374;SDS011;6756;51.354;15.754;2024-03-02T03:58:44;66.87;;;47.10;;
13374;SDS011;6756;51.354;15.754;2024-03-02T04:02:45;69.27;;;45.73;;
13374;SDS011;6756;51.354;15.754;2024-03-02T04:06:46;65.63;;;45.07;;
13374;SDS011;6756;51.354;15.754;2024-03-02T04:10:47;72.90;;;47.57;;
13374;SDS011;6756;51.354;15.754;2024-03-02T04:14:47;67.93;;;45.40;;
13374;SDS011;6756;51.354;15.754;2024-03-02T04:18:48;75.33;;;49.37;;
13374;SDS011;6756;51.354;15.754;2024-03-02T04:22:49;71.97;;;46.40;;
13374;SDS011;6756;51.354;15.754;2024-03-02T04:26:49;80.83;;;50.73;;
13374;SDS011;6756;51.354;15.754;2024-03-02T04:30:50;74.33;;;45.80;;
13374;SDS011;6756;51.354;15.754;2024-03-02T04:34:51;75.70;;;48.93;;
13374;SDS011;6756;51.354;15.754;2024-03-02T04:38:51;81.13;;;51.87;;
13374;SDS011;6756;51.354;15.754;2024-03-02T04:42:52;82.50;;;52.43;;
13374;SDS011;6756;51.354;15.754;2024-03-02T04:46:53;88.87;;;56.37;;
13374;SDS011;6756;51.354;15.754;2024-03-02T04:50:54;92.70;;;54.83;;
13374;SDS011;6756;51.354;15.754;2024-03-02T04:54:54;97.30;;;57.70;;
13374;SDS011;6756;51.354;15.754;2024-03-02T04:59:25;92.47;;;55.90;;
13374;SDS011;6756;51.354;15.754;2024-03-02T05:03:25;78.07;;;49.20;;
13374;SDS011;6756;51.354;15.754;2024-03-02T05:07:26;84.40;;;52.73;;
13374;SDS011;6756;51.354;15.754;2024-03-02T05:11:27;82.37;;;49.67;;
13374;SDS011;6756;51.354;15.754;2024-03-02T05:15:37;69.93;;;46.60;;
13374;SDS011;6756;51.354;15.754;2024-03-02T05:19:37;77.93;;;48.70;;
13374;SDS011;6756;51.354;15.754;2024-03-02T05:23:38;78.70;;;48.63;;
13374;SDS011;6756;51.354;15.754;2024-03-02T05:27:39;70.47;;;45.57;;
13374;SDS011;6756;51.354;15.754;2024-03-02T05:31:40;77.63;;;49.93;;
13374;SDS011;6756;51.354;15.754;2024-03-02T05:35:40;81.10;;;52.83;;
13374;SDS011;6756;51.354;15.754;2024-03-02T05:39:41;119.10;;;71.63;;
13374;SDS011;6756;51.354;15.754;2024-03-02T05:43:43;107.53;;;64.97;;
13374;SDS011;6756;51.354;15.754;2024-03-02T05:47:44;79.97;;;51.97;;
13374;SDS011;6756;51.354;15.754;2024-03-02T05:51:44;68.47;;;46.23;;
13374;SDS011;6756;51.354;15.754;2024-03-02T05:55:45;67.00;;;44.53;;
13374;SDS011;6756;51.354;15.754;2024-03-02T05:59:47;76.63;;;46.40;;
13374;SDS011;6756;51.354;15.754;2024-03-02T06:03:48;65.10;;;44.20;;
13374;SDS011;6756;51.354;15.754;2024-03-02T06:07:49;64.50;;;41.90;;
13374;SDS011;6756;51.354;15.754;2024-03-02T06:11:51;64.20;;;42.17;;
13374;SDS011;6756;51.354;15.754;2024-03-02T06:15:52;62.07;;;41.00;;
13374;SDS011;6756;51.354;15.754;2024-03-02T06:19:53;68.80;;;45.40;;
13374;SDS011;6756;51.354;15.754;2024-03-02T06:23:54;67.83;;;43.50;;
13374;SDS011;6756;51.354;15.754;2024-03-02T06:27:55;71.47;;;44.23;;
13374;SDS011;6756;51.354;15.754;2024-03-02T06:31:55;75.73;;;48.13;;
13374;SDS011;6756;51.354;15.754;2024-03-02T06:35:56;74.57;;;45.70;;
13374;SDS011;6756;51.354;15.754;2024-03-02T06:39:57;74.77;;;47.87;;
13374;SDS011;6756;51.354;15.754;2024-03-02T06:43:58;71.67;;;46.03;;
13374;SDS011;6756;51.354;15.754;2024-03-02T06:48:01;73.97;;;47.10;;
13374;SDS011;6756;51.354;15.754;2024-03-02T06:52:02;71.63;;;47.07;;
13374;SDS011;6756;51.354;15.754;2024-03-02T06:56:03;66.93;;;46.00;;
13374;SDS011;6756;51.354;15.754;2024-03-02T07:00:05;66.50;;;43.87;;
13374;SDS011;6756;51.354;15.754;2024-03-02T07:04:08;63.50;;;44.60;;
13374;SDS011;6756;51.354;15.754;2024-03-02T07:08:09;63.83;;;43.13;;
13374;SDS011;6756;51.354;15.754;2024-03-02T07:12:10;56.97;;;38.97;;
13374;SDS011;6756;51.354;15.754;2024-03-02T07:16:11;65.67;;;49.33;;
13374;SDS011;6756;51.354;15.754;2024-03-02T07:20:33;66.83;;;48.03;;
13374;SDS011;6756;51.354;15.754;2024-03-02T07:24:40;61.53;;;41.70;;
13374;SDS011;6756;51.354;15.754;2024-03-02T07:28:42;58.03;;;42.67;;
13374;SDS011;6756;51.354;15.754;2024-03-02T07:32:43;58.57;;;40.50;;
13374;SDS011;6756;51.354;15.754;2024-03-02T07:36:45;61.10;;;42.37;;
13374;SDS011;6756;51.354;15.754;2024-03-02T07:40:47;55.13;;;39.80;;
13374;SDS011;6756;51.354;15.754;2024-03-02T07:44:50;65.37;;;45.57;;
13374;SDS011;6756;51.354;15.754;2024-03-02T07:48:51;93.70;;;52.60;;
13374;SDS011;6756;51.354;15.754;2024-03-02T07:52:52;66.70;;;44.43;;
13374;SDS011;6756;51.354;15.754;2024-03-02T07:56:53;95.90;;;58.87;;
13374;SDS011;6756;51.354;15.754;2024-03-02T08:00:54;58.90;;;42.73;;
13374;SDS011;6756;51.354;15.754;2024-03-02T08:04:55;50.77;;;37.23;;
13374;SDS011;6756;51.354;15.754;2024-03-02T08:08:59;47.33;;;35.30;;
13374;SDS011;6756;51.354;15.754;2024-03-02T08:13:01;53.03;;;37.20;;
13374;SDS011;6756;51.354;15.754;2024-03-02T08:17:02;53.07;;;37.27;;
13374;SDS011;6756;51.354;15.754;2024-03-02T08:21:03;46.70;;;34.60;;
13374;SDS011;6756;51.354;15.754;2024-03-02T08:25:04;42.97;;;31.83;;
13374;SDS011;6756;51.354;15.754;2024-03-02T08:29:05;40.13;;;29.63;;
13374;SDS011;6756;51.354;15.754;2024-03-02T08:33:06;33.70;;;27.03;;
13374;SDS011;6756;51.354;15.754;2024-03-02T08:37:07;36.10;;;28.73;;
13374;SDS011;6756;51.354;15.754;2024-03-02T08:41:08;40.07;;;31.33;;
13374;SDS011;6756;51.354;15.754;2024-03-02T08:45:09;33.73;;;26.73;;
13374;SDS011;6756;51.354;15.754;2024-03-02T08:49:09;35.77;;;28.30;;
13374;SDS011;6756;51.354;15.754;2024-03-02T08:53:10;34.33;;;27.73;;
13374;SDS011;6756;51.354;15.754;2024-03-02T08:57:11;28.97;;;23.70;;
13374;SDS011;6756;51.354;15.754;2024-03-02T09:01:12;57.00;;;33.53;;
13374;SDS011;6756;51.354;15.754;2024-03-02T09:05:13;47.97;;;30.10;;
13374;SDS011;6756;51.354;15.754;2024-03-02T09:09:14;35.10;;;26.83;;
13374;SDS011;6756;51.354;15.754;2024-03-02T09:13:15;39.90;;;28.83;;
13374;SDS011;6756;51.354;15.754;2024-03-02T09:17:15;32.87;;;25.97;;
13374;SDS011;6756;51.354;15.754;2024-03-02T09:21:16;28.17;;;22.57;;
13374;SDS011;6756;51.354;15.754;2024-03-02T09:25:17;31.67;;;25.33;;
13374;SDS011;6756;51.354;15.754;2024-03-02T09:29:18;27.63;;;22.20;;
13374;SDS011;6756;51.354;15.754;2024-03-02T09:33:20;34.57;;;26.70;;
13374;SDS011;6756;51.354;15.754;2024-03-02T09:37:21;28.33;;;22.77;;
13374;SDS011;6756;51.354;15.754;2024-03-02T09:41:22;29.53;;;22.57;;
13374;SDS011;6756;51.354;15.754;2024-03-02T09:45:23;26.70;;;21.93;;
13374;SDS011;6756;51.354;15.754;2024-03-02T09:49:25;24.97;;;21.83;;
13374;SDS011;6756;51.354;15.754;2024-03-02T09:53:25;27.03;;;21.93;;
13374;SDS011;6756;51.354;15.754;2024-03-02T09:57:31;22.40;;;19.77;;
13374;SDS011;6756;51.354;15.754;2024-03-02T10:01:32;22.63;;;19.07;;
13374;SDS011;6756;51.354;15.754;2024-03-02T10:05:32;22.87;;;18.40;;
13374;SDS011;6756;51.354;15.754;2024-03-02T10:09:33;20.53;;;17.30;;
13374;SDS011;6756;51.354;15.754;2024-03-02T10:13:34;20.77;;;18.07;;
13374;SDS011;6756;51.354;15.754;2024-03-02T10:17:35;24.97;;;21.53;;
13374;SDS011;6756;51.354;15.754;2024-03-02T10:21:36;26.93;;;21.20;;
13374;SDS011;6756;51.354;15.754;2024-03-02T10:25:40;23.70;;;18.97;;
13374;SDS011;6756;51.354;15.754;2024-03-02T10:29:42;20.37;;;16.70;;
13374;SDS011;6756;51.354;15.754;2024-03-02T10:33:45;22.03;;;18.90;;
13374;SDS011;6756;51.354;15.754;2024-03-02T10:37:47;20.70;;;18.50;;
13374;SDS011;6756;51.354;15.754;2024-03-02T10:41:48;25.20;;;21.50;;
13374;SDS011;6756;51.354;15.754;2024-03-02T10:45:52;24.83;;;21.03;;
13374;SDS011;6756;51.354;15.754;2024-03-02T10:49:54;25.97;;;21.30;;
13374;SDS011;6756;51.354;15.754;2024-03-02T10:53:59;30.93;;;23.43;;
13374;SDS011;6756;51.354;15.754;2024-03-02T10:58:04;29.57;;;23.93;;
13374;SDS011;6756;51.354;15.754;2024-03-02T11:02:07;30.20;;;24.53;;
13374;SDS011;6756;51.354;15.754;2024-03-02T11:06:12;32.57;;;24.40;;
13374;SDS011;6756;51.354;15.754;2024-03-02T11:10:14;29.67;;;23.60;;
13374;SDS011;6756;51.354;15.754;2024-03-02T11:14:16;30.57;;;24.03;;
13374;SDS011;6756;51.354;15.754;2024-03-02T11:18:21;31.17;;;23.50;;
13374;SDS011;6756;51.354;15.754;2024-03-02T11:22:22;25.87;;;20.57;;
13374;SDS011;6756;51.354;15.754;2024-03-02T11:26:23;28.40;;;23.70;;
13374;SDS011;6756;51.354;15.754;2024-03-02T11:34:35;30.53;;;23.93;;
13374;SDS011;6756;51.354;15.754;2024-03-02T11:38:39;28.17;;;22.97;;
13374;SDS011;6756;51.354;15.754;2024-03-02T11:42:45;29.50;;;23.77;;
13374;SDS011;6756;51.354;15.754;2024-03-02T11:46:57;25.60;;;19.97;;
13374;SDS011;6756;51.354;15.754;2024-03-02T11:51:00;24.90;;;20.13;;
13374;SDS011;6756;51.354;15.754;2024-03-02T11:55:01;26.93;;;22.20;;
13374;SDS011;6756;51.354;15.754;2024-03-02T11:59:03;24.13;;;19.40;;
13374;SDS011;6756;51.354;15.754;2024-03-02T12:03:08;24.27;;;19.80;;
13374;SDS011;6756;51.354;15.754;2024-03-02T12:07:12;23.80;;;19.80;;
13374;SDS011;6756;51.354;15.754;2024-03-02T12:11:18;24.03;;;20.67;;
13374;SDS011;6756;51.354;15.754;2024-03-02T12:15:22;20.00;;;17.87;;
13374;SDS011;6756;51.354;15.754;2024-03-02T12:19:27;26.90;;;22.00;;
13374;SDS011;6756;51.354;15.754;2024-03-02T12:23:29;25.87;;;21.87;;
13374;SDS011;6756;51.354;15.754;2024-03-02T12:27:30;24.77;;;20.53;;
13374;SDS011;6756;51.354;15.754;2024-03-02T12:31:31;22.80;;;18.20;;
13374;SDS011;6756;51.354;15.754;2024-03-02T12:35:32;25.70;;;20.90;;
13374;SDS011;6756;51.354;15.754;2024-03-02T12:39:33;22.27;;;18.97;;
13374;SDS011;6756;51.354;15.754;2024-03-02T12:43:34;22.10;;;17.83;;
13374;SDS011;6756;51.354;15.754;2024-03-02T12:47:35;24.23;;;20.63;;
13374;SDS011;6756;51.354;15.754;2024-03-02T12:51:36;23.80;;;19.63;;
13374;SDS011;6756;51.354;15.754;2024-03-02T12:55:40;24.23;;;20.70;;
13374;SDS011;6756;51.354;15.754;2024-03-02T12:59:44;25.53;;;20.10;;
13374;SDS011;6756;51.354;15.754;2024-03-02T13:03:50;21.17;;;18.60;;
13374;SDS011;6756;51.354;15.754;2024-03-02T13:07:53;24.13;;;19.97;;
13374;SDS011;6756;51.354;15.754;2024-03-02T13:11:54;23.13;;;19.40;;
13374;SDS011;6756;51.354;15.754;2024-03-02T13:15:56;25.13;;;21.43;;
13374;SDS011;6756;51.354;15.754;2024-03-02T13:19:58;21.83;;;19.47;;
13374;SDS011;6756;51.354;15.754;2024-03-02T13:24:00;23.63;;;18.47;;
13374;SDS011;6756;51.354;15.754;2024-03-02T13:28:01;24.07;;;19.40;;
13374;SDS011;6756;51.354;15.754;2024-03-02T13:32:03;22.40;;;18.70;;
13374;SDS011;6756;51.354;15.754;2024-03-02T13:36:04;22.37;;;18.77;;
13374;SDS011;6756;51.354;15.754;2024-03-02T13:40:05;22.37;;;18.67;;
13374;SDS011;6756;51.354;15.754;2024-03-02T13:44:06;21.57;;;17.60;;
13374;SDS011;6756;51.354;15.754;2024-03-02T13:48:07;21.93;;;18.83;;
13374;SDS011;6756;51.354;15.754;2024-03-02T13:52:08;21.73;;;17.03;;
13374;SDS011;6756;51.354;15.754;2024-03-02T13:56:16;22.87;;;19.00;;
13374;SDS011;6756;51.354;15.754;2024-03-02T14:00:17;22.03;;;17.37;;
13374;SDS011;6756;51.354;15.754;2024-03-02T14:04:18;23.90;;;18.23;;
13374;SDS011;6756;51.354;15.754;2024-03-02T14:08:19;20.80;;;16.70;;
13374;SDS011;6756;51.354;15.754;2024-03-02T14:12:20;20.80;;;16.90;;
13374;SDS011;6756;51.354;15.754;2024-03-02T14:16:22;24.37;;;19.13;;
13374;SDS011;6756;51.354;15.754;2024-03-02T14:20:23;25.50;;;20.07;;
13374;SDS011;6756;51.354;15.754;2024-03-02T14:24:24;27.30;;;20.27;;
13374;SDS011;6756;51.354;15.754;2024-03-02T14:28:25;26.87;;;20.23;;
13374;SDS011;6756;51.354;15.754;2024-03-02T14:32:26;24.63;;;18.70;;
13374;SDS011;6756;51.354;15.754;2024-03-02T14:36:27;22.40;;;17.90;;
13374;SDS011;6756;51.354;15.754;2024-03-02T14:40:28;23.07;;;18.20;;
13374;SDS011;6756;51.354;15.754;2024-03-02T14:44:29;27.67;;;20.30;;
13374;SDS011;6756;51.354;15.754;2024-03-02T14:48:30;27.60;;;20.00;;
13374;SDS011;6756;51.354;15.754;2024-03-02T14:52:32;27.13;;;17.50;;
13374;SDS011;6756;51.354;15.754;2024-03-02T14:56:33;23.50;;;16.63;;
13374;SDS011;6756;51.354;15.754;2024-03-02T15:00:34;19.30;;;15.73;;
13374;SDS011;6756;51.354;15.754;2024-03-02T15:04:35;22.33;;;15.80;;
13374;SDS011;6756;51.354;15.754;2024-03-02T15:08:35;20.90;;;16.50;;
13374;SDS011;6756;51.354;15.754;2024-03-02T15:12:37;21.97;;;16.97;;
13374;SDS011;6756;51.354;15.754;2024-03-02T15:16:38;27.30;;;20.33;;
13374;SDS011;6756;51.354;15.754;2024-03-02T15:20:38;22.67;;;17.97;;
13374;SDS011;6756;51.354;15.754;2024-03-02T15:24:40;21.20;;;17.00;;
13374;SDS011;6756;51.354;15.754;2024-03-02T15:28:41;27.50;;;19.23;;
13374;SDS011;6756;51.354;15.754;2024-03-02T15:32:42;32.83;;;23.97;;
13374;SDS011;6756;51.354;15.754;2024-03-02T15:36:43;25.50;;;19.20;;
13374;SDS011;6756;51.354;15.754;2024-03-02T15:40:44;32.90;;;23.87;;
13374;SDS011;6756;51.354;15.754;2024-03-02T15:44:44;36.93;;;26.17;;
13374;SDS011;6756;51.354;15.754;2024-03-02T15:48:45;32.87;;;23.00;;
13374;SDS011;6756;51.354;15.754;2024-03-02T15:52:46;28.93;;;20.60;;
13374;SDS011;6756;51.354;15.754;2024-03-02T15:56:47;32.90;;;23.70;;
13374;SDS011;6756;51.354;15.754;2024-03-02T16:00:48;26.97;;;21.37;;
13374;SDS011;6756;51.354;15.754;2024-03-02T16:04:48;35.37;;;26.50;;
13374;SDS011;6756;51.354;15.754;2024-03-02T16:08:49;39.03;;;27.40;;
13374;SDS011;6756;51.354;15.754;2024-03-02T16:12:51;40.97;;;28.47;;
13374;SDS011;6756;51.354;15.754;2024-03-02T16:16:53;39.20;;;30.10;;
13374;SDS011;6756;51.354;15.754;2024-03-02T16:20:54;32.80;;;25.37;;
13374;SDS011;6756;51.354;15.754;2024-03-02T16:24:55;35.67;;;28.17;;
13374;SDS011;6756;51.354;15.754;2024-03-02T16:28:55;43.43;;;31.60;;
13374;SDS011;6756;51.354;15.754;2024-03-02T16:32:56;39.60;;;27.07;;
13374;SDS011;6756;51.354;15.754;2024-03-02T16:36:57;36.13;;;26.13;;
13374;SDS011;6756;51.354;15.754;2024-03-02T16:40:58;38.77;;;28.07;;
13374;SDS011;6756;51.354;15.754;2024-03-02T16:44:58;47.10;;;32.47;;
13374;SDS011;6756;51.354;15.754;2024-03-02T16:48:59;49.47;;;34.43;;
13374;SDS011;6756;51.354;15.754;2024-03-02T16:53:00;40.17;;;31.43;;
13374;SDS011;6756;51.354;15.754;2024-03-02T16:57:01;36.20;;;28.33;;
13374;SDS011;6756;51.354;15.754;2024-03-02T17:01:02;42.27;;;31.20;;
13374;SDS011;6756;51.354;15.754;2024-03-02T17:05:03;37.63;;;27.90;;
13374;SDS011;6756;51.354;15.754;2024-03-02T17:09:04;37.40;;;26.50;;
13374;SDS011;6756;51.354;15.754;2024-03-02T17:13:05;36.67;;;27.63;;
13374;SDS011;6756;51.354;15.754;2024-03-02T17:17:06;35.43;;;26.97;;
13374;SDS011;6756;51.354;15.754;2024-03-02T17:21:07;33.63;;;25.43;;
13374;SDS011;6756;51.354;15.754;2024-03-02T17:25:08;36.93;;;27.80;;
13374;SDS011;6756;51.354;15.754;2024-03-02T17:29:09;38.83;;;27.13;;
13374;SDS011;6756;51.354;15.754;2024-03-02T17:33:10;43.10;;;30.57;;
13374;SDS011;6756;51.354;15.754;2024-03-02T17:37:10;38.17;;;29.40;;
13374;SDS011;6756;51.354;15.754;2024-03-02T17:41:12;40.83;;;30.50;;
13374;SDS011;6756;51.354;15.754;2024-03-02T17:45:13;36.10;;;26.63;;
13374;SDS011;6756;51.354;15.754;2024-03-02T17:49:14;34.03;;;25.23;;
13374;SDS011;6756;51.354;15.754;2024-03-02T17:53:15;29.83;;;22.93;;
13374;SDS011;6756;51.354;15.754;2024-03-02T17:57:16;30.97;;;22.87;;
13374;SDS011;6756;51.354;15.754;2024-03-02T18:01:17;31.03;;;23.50;;
13374;SDS011;6756;51.354;15.754;2024-03-02T18:05:18;40.67;;;27.40;;
13374;SDS011;6756;51.354;15.754;2024-03-02T18:09:18;156.60;;;68.10;;
13374;SDS011;6756;51.354;15.754;2024-03-02T18:13:19;167.83;;;76.33;;
13374;SDS011;6756;51.354;15.754;2024-03-02T18:17:20;141.23;;;69.07;;
13374;SDS011;6756;51.354;15.754;2024-03-02T18:21:21;150.50;;;72.23;;
13374;SDS011;6756;51.354;15.754;2024-03-02T18:25:22;110.37;;;57.47;;
13374;SDS011;6756;51.354;15.754;2024-03-02T18:29:22;73.10;;;43.13;;
13374;SDS011;6756;51.354;15.754;2024-03-02T18:33:23;52.73;;;32.47;;
13374;SDS011;6756;51.354;15.754;2024-03-02T18:37:24;37.83;;;26.07;;
13374;SDS011;6756;51.354;15.754;2024-03-02T18:41:25;31.77;;;23.50;;
13374;SDS011;6756;51.354;15.754;2024-03-02T18:45:26;35.93;;;25.70;;
13374;SDS011;6756;51.354;15.754;2024-03-02T18:49:27;33.60;;;25.00;;
13374;SDS011;6756;51.354;15.754;2024-03-02T18:53:27;31.90;;;24.00;;
13374;SDS011;6756;51.354;15.754;2024-03-02T18:57:29;33.47;;;25.17;;
13374;SDS011;6756;51.354;15.754;2024-03-02T19:01:30;36.10;;;25.20;;
13374;SDS011;6756;51.354;15.754;2024-03-02T19:05:31;40.07;;;27.37;;
13374;SDS011;6756;51.354;15.754;2024-03-02T19:09:31;38.97;;;27.73;;
13374;SDS011;6756;51.354;15.754;2024-03-02T19:13:32;39.77;;;29.63;;
13374;SDS011;6756;51.354;15.754;2024-03-02T19:17:33;41.37;;;28.43;;
13374;SDS011;6756;51.354;15.754;2024-03-02T19:21:34;43.27;;;28.83;;
13374;SDS011;6756;51.354;15.754;2024-03-02T19:25:35;46.00;;;31.30;;
13374;SDS011;6756;51.354;15.754;2024-03-02T19:29:36;40.87;;;29.33;;
13374;SDS011;6756;51.354;15.754;2024-03-02T19:33:37;42.07;;;28.53;;
13374;SDS011;6756;51.354;15.754;2024-03-02T19:37:38;38.57;;;28.10;;
13374;SDS011;6756;51.354;15.754;2024-03-02T19:41:39;41.53;;;28.83;;
13374;SDS011;6756;51.354;15.754;2024-03-02T19:45:40;42.53;;;30.00;;
13374;SDS011;6756;51.354;15.754;2024-03-02T19:49:44;47.77;;;32.43;;
13374;SDS011;6756;51.354;15.754;2024-03-02T19:53:46;49.67;;;33.60;;
13374;SDS011;6756;51.354;15.754;2024-03-02T19:57:47;51.93;;;35.67;;
13374;SDS011;6756;51.354;15.754;2024-03-02T20:01:48;55.17;;;37.10;;
13374;SDS011;6756;51.354;15.754;2024-03-02T20:05:49;63.30;;;39.70;;
13374;SDS011;6756;51.354;15.754;2024-03-02T20:09:50;61.27;;;41.80;;
13374;SDS011;6756;51.354;15.754;2024-03-02T20:13:52;61.40;;;40.30;;
13374;SDS011;6756;51.354;15.754;2024-03-02T20:17:53;52.20;;;36.57;;
13374;SDS011;6756;51.354;15.754;2024-03-02T20:21:55;50.17;;;35.43;;
13374;SDS011;6756;51.354;15.754;2024-03-02T20:25:55;49.20;;;33.93;;
13374;SDS011;6756;51.354;15.754;2024-03-02T20:29:58;49.73;;;34.70;;
13374;SDS011;6756;51.354;15.754;2024-03-02T20:33:59;49.27;;;34.00;;
13374;SDS011;6756;51.354;15.754;2024-03-02T20:38:00;47.37;;;34.10;;
13374;SDS011;6756;51.354;15.754;2024-03-02T20:42:01;43.77;;;30.83;;
13374;SDS011;6756;51.354;15.754;2024-03-02T20:46:02;45.77;;;33.00;;
13374;SDS011;6756;51.354;15.754;2024-03-02T20:50:05;44.27;;;31.90;;
13374;SDS011;6756;51.354;15.754;2024-03-02T20:54:07;69.60;;;46.20;;
13374;SDS011;6756;51.354;15.754;2024-03-02T20:58:07;83.80;;;53.63;;
13374;SDS011;6756;51.354;15.754;2024-03-02T21:02:08;75.60;;;50.10;;
13374;SDS011;6756;51.354;15.754;2024-03-02T21:06:09;67.33;;;45.03;;
13374;SDS011;6756;51.354;15.754;2024-03-02T21:10:10;61.00;;;40.83;;
13374;SDS011;6756;51.354;15.754;2024-03-02T21:14:11;51.80;;;36.10;;
13374;SDS011;6756;51.354;15.754;2024-03-02T21:18:12;44.30;;;33.43;;
13374;SDS011;6756;51.354;15.754;2024-03-02T21:22:13;50.80;;;35.80;;
13374;SDS011;6756;51.354;15.754;2024-03-02T21:26:15;56.83;;;40.37;;
13374;SDS011;6756;51.354;15.754;2024-03-02T21:30:16;61.20;;;43.13;;
13374;SDS011;6756;51.354;15.754;2024-03-02T21:34:18;56.87;;;40.40;;
13374;SDS011;6756;51.354;15.754;2024-03-02T21:38:19;55.33;;;40.27;;
13374;SDS011;6756;51.354;15.754;2024-03-02T21:42:20;51.60;;;38.33;;
13374;SDS011;6756;51.354;15.754;2024-03-02T21:46:21;51.60;;;37.30;;
13374;SDS011;6756;51.354;15.754;2024-03-02T21:50:21;54.87;;;40.37;;
13374;SDS011;6756;51.354;15.754;2024-03-02T21:54:23;59.00;;;41.60;;
13374;SDS011;6756;51.354;15.754;2024-03-02T21:58:23;57.43;;;41.33;;
13374;SDS011;6756;51.354;15.754;2024-03-02T22:02:24;50.37;;;37.93;;
13374;SDS011;6756;51.354;15.754;2024-03-02T22:06:25;55.43;;;41.63;;
13374;SDS011;6756;51.354;15.754;2024-03-02T22:10:26;53.13;;;37.60;;
13374;SDS011;6756;51.354;15.754;2024-03-02T22:14:27;50.17;;;38.03;;
13374;SDS011;6756;51.354;15.754;2024-03-02T22:18:28;50.77;;;36.80;;
13374;SDS011;6756;51.354;15.754;2024-03-02T22:22:28;47.77;;;35.20;;
13374;SDS011;6756;51.354;15.754;2024-03-02T22:26:29;51.90;;;36.53;;
13374;SDS011;6756;51.354;15.754;2024-03-02T22:30:30;54.97;;;37.27;;
13374;SDS011;6756;51.354;15.754;2024-03-02T22:34:31;52.83;;;36.90;;
13374;SDS011;6756;51.354;15.754;2024-03-02T22:38:32;51.60;;;37.37;;
13374;SDS011;6756;51.354;15.754;2024-03-02T22:42:33;45.77;;;34.40;;
13374;SDS011;6756;51.354;15.754;2024-03-02T22:46:34;44.57;;;33.70;;
13374;SDS011;6756;51.354;15.754;2024-03-02T22:50:34;48.73;;;33.87;;
13374;SDS011;6756;51.354;15.754;2024-03-02T22:54:35;46.27;;;33.70;;
13374;SDS011;6756;51.354;15.754;2024-03-02T22:58:36;39.80;;;30.17;;
13374;SDS011;6756;51.354;15.754;2024-03-02T23:02:38;48.47;;;33.03;;
13374;SDS011;6756;51.354;15.754;2024-03-02T23:06:38;37.80;;;28.73;;
13374;SDS011;6756;51.354;15.754;2024-03-02T23:10:39;36.50;;;27.27;;
13374;SDS011;6756;51.354;15.754;2024-03-02T23:14:40;35.90;;;28.10;;
13374;SDS011;6756;51.354;15.754;2024-03-02T23:18:41;35.40;;;27.33;;
13374;SDS011;6756;51.354;15.754;2024-03-02T23:22:43;32.73;;;25.77;;
13374;SDS011;6756;51.354;15.754;2024-03-02T23:26:44;38.20;;;27.87;;
13374;SDS011;6756;51.354;15.754;2024-03-02T23:30:46;33.10;;;25.43;;
13374;SDS011;6756;51.354;15.754;2024-03-02T23:34:46;36.67;;;27.37;;
13374;SDS011;6756;51.354;15.754;2024-03-02T23:38:47;37.40;;;27.57;;